createdAt,value
2023-04-26T00:01:31.852Z,2.90
2023-04-26T00:03:58.809Z,3.00
2023-04-26T00:06:27.177Z,2.90
2023-04-26T00:08:54.618Z,3.00
2023-04-26T00:11:21.866Z,2.90
2023-04-26T00:13:48.836Z,2.90
2023-04-26T00:16:16.552Z,2.90
2023-04-26T00:18:43.375Z,2.90
2023-04-26T00:21:10.222Z,2.80
2023-04-26T00:23:36.980Z,2.80
2023-04-26T00:26:04.431Z,2.80
2023-04-26T00:28:31.422Z,2.80
2023-04-26T00:30:58.339Z,2.70
2023-04-26T00:33:25.997Z,2.70
2023-04-26T00:35:53.015Z,2.70
2023-04-26T00:38:19.834Z,2.70
2023-04-26T00:40:46.784Z,2.60
2023-04-26T00:43:13.675Z,2.60
2023-04-26T00:45:40.559Z,2.60
2023-04-26T00:48:07.429Z,2.60
2023-04-26T00:50:34.511Z,2.50
2023-04-26T00:53:02.785Z,2.50
2023-04-26T00:55:29.753Z,2.50
2023-04-26T00:57:56.639Z,2.50
2023-04-26T01:00:23.518Z,2.50
2023-04-26T01:02:51.108Z,2.50
2023-04-26T01:05:18.279Z,2.50
2023-04-26T01:07:46.132Z,2.50
2023-04-26T01:10:12.978Z,2.40
2023-04-26T01:12:40.416Z,2.40
2023-04-26T01:15:07.692Z,2.40
2023-04-26T01:17:34.544Z,2.40
2023-04-26T01:20:01.356Z,2.40
2023-04-26T01:22:32.180Z,2.30
2023-04-26T01:25:01.591Z,2.40
2023-04-26T01:27:28.483Z,2.30
2023-04-26T01:29:55.385Z,2.30
2023-04-26T01:32:22.261Z,2.40
2023-04-26T01:34:48.964Z,2.40
2023-04-26T01:37:15.722Z,2.40
2023-04-26T01:39:42.538Z,2.40
2023-04-26T01:42:09.254Z,2.30
2023-04-26T01:44:36.336Z,2.20
2023-04-26T01:47:03.261Z,2.20
2023-04-26T01:49:30.038Z,2.30
2023-04-26T01:51:56.836Z,2.30
2023-04-26T01:54:23.591Z,2.20
2023-04-26T01:56:50.727Z,2.20
2023-04-26T01:59:17.540Z,2.20
2023-04-26T02:01:44.439Z,2.20
2023-04-26T02:04:11.714Z,2.20
2023-04-26T02:06:38.492Z,2.20
2023-04-26T02:09:05.949Z,2.20
2023-04-26T02:11:32.779Z,2.20
2023-04-26T02:13:59.624Z,2.20
2023-04-26T02:16:27.041Z,2.20
2023-04-26T02:18:55.117Z,2.20
2023-04-26T02:21:22.849Z,2.10
2023-04-26T02:23:49.570Z,2.20
2023-04-26T02:26:16.439Z,2.30
2023-04-26T02:28:43.597Z,2.30
2023-04-26T02:31:11.226Z,2.30
2023-04-26T02:33:38.191Z,2.30
2023-04-26T02:36:06.379Z,2.30
2023-04-26T02:38:35.710Z,2.20
2023-04-26T02:41:03.850Z,2.20
2023-04-26T02:43:31.112Z,2.30
2023-04-26T02:46:01.387Z,2.30
2023-04-26T02:48:28.702Z,2.30
2023-04-26T02:50:55.612Z,2.30
2023-04-26T02:53:22.470Z,2.30
2023-04-26T02:55:49.368Z,2.20
2023-04-26T02:58:16.159Z,2.20
2023-04-26T03:00:49.614Z,2.10
2023-04-26T03:03:16.852Z,2.10
2023-04-26T03:05:43.823Z,2.00
2023-04-26T03:08:10.832Z,2.00
2023-04-26T03:10:37.741Z,2.00
2023-04-26T03:13:05.224Z,2.00
2023-04-26T03:15:32.077Z,1.90
2023-04-26T03:17:59.010Z,1.90
2023-04-26T03:20:26.028Z,1.90
2023-04-26T03:22:52.820Z,1.90
2023-04-26T03:25:19.873Z,1.90
2023-04-26T03:27:46.752Z,1.90
2023-04-26T03:30:14.579Z,1.90
2023-04-26T03:32:41.354Z,1.90
2023-04-26T03:35:08.568Z,1.80
2023-04-26T03:37:35.373Z,1.80
2023-04-26T03:40:02.157Z,1.80
2023-04-26T03:42:28.954Z,1.80
2023-04-26T03:44:55.691Z,1.90
2023-04-26T03:47:22.647Z,1.80
2023-04-26T03:49:49.424Z,1.80
2023-04-26T03:52:16.830Z,1.80
2023-04-26T03:54:43.723Z,1.80
2023-04-26T03:57:10.461Z,1.80
2023-04-26T03:59:37.859Z,1.80
2023-04-26T04:02:04.974Z,1.80
2023-04-26T04:04:32.409Z,1.80
2023-04-26T04:06:59.894Z,1.70
2023-04-26T04:09:26.675Z,1.80
2023-04-26T04:11:53.453Z,1.80
2023-04-26T04:14:20.249Z,1.80
2023-04-26T04:16:47.114Z,1.80
2023-04-26T04:19:13.848Z,1.80
2023-04-26T04:21:42.797Z,1.80
2023-04-26T04:24:09.560Z,1.80
2023-04-26T04:26:36.992Z,1.90
2023-04-26T04:29:09.170Z,1.90
2023-04-26T04:31:36.601Z,1.90
2023-04-26T04:34:03.385Z,1.90
2023-04-26T04:36:31.163Z,2.00
2023-04-26T04:38:58.182Z,2.00
2023-04-26T04:41:25.000Z,2.10
2023-04-26T04:43:51.802Z,2.10
2023-04-26T04:46:18.537Z,2.10
2023-04-26T04:48:45.361Z,2.20
2023-04-26T04:51:12.270Z,2.30
2023-04-26T04:53:39.007Z,2.30
2023-04-26T04:56:06.380Z,2.40
2023-04-26T04:58:33.095Z,2.40
2023-04-26T05:01:01.368Z,2.50
2023-04-26T05:03:28.366Z,2.60
2023-04-26T05:05:55.270Z,2.70
2023-04-26T05:08:22.403Z,2.70
2023-04-26T05:10:49.218Z,2.70
2023-04-26T05:13:16.037Z,2.80
2023-04-26T05:15:42.962Z,2.80
2023-04-26T05:18:10.149Z,2.80
2023-04-26T05:20:36.895Z,2.90
2023-04-26T05:23:03.650Z,2.90
2023-04-26T05:25:30.549Z,3.00
2023-04-26T05:27:57.381Z,3.00
2023-04-26T05:30:24.310Z,3.10
2023-04-26T05:32:51.210Z,3.10
2023-04-26T05:35:18.040Z,3.20
2023-04-26T05:37:45.079Z,3.20
2023-04-26T05:40:12.468Z,3.30
2023-04-26T05:42:39.304Z,3.30
2023-04-26T05:45:06.944Z,3.40
2023-04-26T05:47:33.732Z,3.50
2023-04-26T05:50:00.575Z,3.60
2023-04-26T05:52:27.477Z,3.60
2023-04-26T05:54:54.266Z,3.70
2023-04-26T05:57:21.120Z,3.80
2023-04-26T05:59:48.130Z,3.90
2023-04-26T06:02:15.004Z,4.00
2023-04-26T06:04:42.079Z,4.10
2023-04-26T06:07:09.837Z,4.20
2023-04-26T06:09:36.638Z,4.30
2023-04-26T06:12:03.902Z,4.60
2023-04-26T06:14:31.129Z,4.80
2023-04-26T06:16:58.267Z,5.10
2023-04-26T06:19:25.425Z,5.40
2023-04-26T06:21:54.948Z,5.90
2023-04-26T06:24:21.852Z,6.40
2023-04-26T06:26:48.662Z,6.50
2023-04-26T06:29:15.464Z,7.00
2023-04-26T06:31:42.297Z,6.70
2023-04-26T06:34:09.318Z,6.80
2023-04-26T06:36:36.089Z,6.70
2023-04-26T06:39:03.184Z,7.00
2023-04-26T06:41:30.075Z,8.10
2023-04-26T06:43:56.919Z,9.00
2023-04-26T06:46:23.726Z,9.10
2023-04-26T06:48:54.168Z,9.80
2023-04-26T06:51:20.918Z,10.90
2023-04-26T06:53:48.768Z,10.60
2023-04-26T06:56:15.598Z,10.50
2023-04-26T06:58:59.358Z,10.50
2023-04-26T07:01:29.064Z,10.60
2023-04-26T07:03:59.498Z,10.30
2023-04-26T07:06:26.534Z,10.90
2023-04-26T07:08:53.603Z,11.10
2023-04-26T07:11:22.399Z,10.90
2023-04-26T07:13:51.141Z,10.80
2023-04-26T07:16:18.231Z,11.00
2023-04-26T07:18:45.058Z,10.00
2023-04-26T07:21:11.855Z,10.40
2023-04-26T07:23:38.634Z,10.90
2023-04-26T07:26:05.450Z,11.60
2023-04-26T07:28:32.353Z,12.00
2023-04-26T07:31:00.256Z,11.20
2023-04-26T07:33:27.354Z,11.40
2023-04-26T07:35:58.748Z,10.30
2023-04-26T07:38:26.081Z,10.80
2023-04-26T07:40:53.141Z,10.50
2023-04-26T07:43:21.246Z,10.60
2023-04-26T07:45:48.084Z,10.60
2023-04-26T07:48:15.022Z,10.40
2023-04-26T07:50:41.792Z,11.00
2023-04-26T07:53:08.609Z,11.00
2023-04-26T07:55:36.186Z,10.80
2023-04-26T07:58:06.039Z,10.90
2023-04-26T08:00:33.108Z,11.40
2023-04-26T08:03:00.047Z,11.00
2023-04-26T08:05:27.718Z,10.60
2023-04-26T08:07:54.813Z,11.00
2023-04-26T08:10:21.701Z,10.30
2023-04-26T08:12:48.576Z,10.30
2023-04-26T08:15:15.545Z,11.40
2023-04-26T08:17:42.434Z,11.40
2023-04-26T08:20:09.924Z,11.10
2023-04-26T08:22:37.149Z,10.90
2023-04-26T08:25:04.715Z,11.10
2023-04-26T08:27:31.952Z,11.70
2023-04-26T08:29:58.861Z,11.40
2023-04-26T08:32:26.228Z,11.10
2023-04-26T08:34:53.116Z,11.60
2023-04-26T08:37:20.031Z,11.70
2023-04-26T08:39:47.015Z,11.00
2023-04-26T08:42:16.195Z,11.70
2023-04-26T08:44:45.171Z,12.10
2023-04-26T08:47:47.775Z,12.30
2023-04-26T08:50:16.830Z,12.70
2023-04-26T08:52:44.681Z,12.90
2023-04-26T08:55:16.440Z,12.80
2023-04-26T08:57:46.519Z,13.90
2023-04-26T09:00:15.734Z,13.50
2023-04-26T09:02:51.286Z,12.70
2023-04-26T09:05:23.627Z,12.10
2023-04-26T09:07:53.260Z,12.80
2023-04-26T09:10:23.034Z,13.30
2023-04-26T09:12:53.586Z,12.70
2023-04-26T09:15:27.300Z,11.80
2023-04-26T09:17:54.253Z,11.30
2023-04-26T09:20:23.935Z,12.00
2023-04-26T09:22:53.942Z,13.10
2023-04-26T09:25:29.015Z,13.00
2023-04-26T09:27:56.326Z,12.40
2023-04-26T09:30:23.575Z,12.30
2023-04-26T09:33:06.869Z,13.60
2023-04-26T09:35:37.722Z,13.50
2023-04-26T09:38:12.571Z,14.10
2023-04-26T09:40:41.551Z,13.60
2023-04-26T09:43:09.430Z,13.00
2023-04-26T09:45:53.895Z,12.40
2023-04-26T09:48:23.260Z,11.60
2023-04-26T09:50:55.046Z,12.10
2023-04-26T09:53:55.629Z,12.90
2023-04-26T09:56:23.521Z,13.10
2023-04-26T09:58:53.465Z,12.90
2023-04-26T10:01:20.660Z,14.20
2023-04-26T10:03:47.875Z,14.80
2023-04-26T10:06:15.048Z,13.90
2023-04-26T10:08:42.127Z,12.50
2023-04-26T10:11:11.320Z,12.40
2023-04-26T10:13:39.137Z,13.90
2023-04-26T10:16:07.216Z,15.50
2023-04-26T10:18:34.308Z,15.70
2023-04-26T10:21:27.083Z,14.90
2023-04-26T10:23:54.149Z,14.70
2023-04-26T10:26:54.354Z,14.10
2023-04-26T10:29:22.314Z,12.90
2023-04-26T10:32:09.334Z,12.40
2023-04-26T10:34:37.232Z,13.10
2023-04-26T10:37:09.780Z,14.80
2023-04-26T10:39:37.162Z,13.80
2023-04-26T10:42:24.108Z,13.80
2023-04-26T10:45:12.562Z,14.40
2023-04-26T10:47:39.501Z,13.70
2023-04-26T10:50:11.279Z,13.00
2023-04-26T10:53:06.164Z,13.90
2023-04-26T10:55:40.553Z,15.60
2023-04-26T10:58:33.536Z,16.90
2023-04-26T11:01:17.192Z,17.80
2023-04-26T11:04:02.030Z,18.10
2023-04-26T11:06:51.122Z,17.90
2023-04-26T11:09:33.413Z,18.80
2023-04-26T11:12:00.808Z,19.70
2023-04-26T11:14:28.148Z,20.00
2023-04-26T11:16:54.994Z,20.60
2023-04-26T11:19:22.156Z,20.20
2023-04-26T11:21:49.218Z,19.70
2023-04-26T11:24:16.169Z,20.00
2023-04-26T11:26:50.965Z,20.10
2023-04-26T11:29:21.929Z,19.90
2023-04-26T11:31:56.447Z,20.20
2023-04-26T11:34:36.457Z,19.20
2023-04-26T11:37:04.758Z,18.60
2023-04-26T11:39:32.705Z,17.60
2023-04-26T11:42:10.564Z,16.30
2023-04-26T11:44:38.598Z,16.40
2023-04-26T11:47:06.803Z,17.80
2023-04-26T11:49:37.891Z,18.60
2023-04-26T11:52:05.987Z,19.30
2023-04-26T11:54:34.722Z,19.30
2023-04-26T11:57:02.956Z,19.40
2023-04-26T11:59:30.888Z,19.60
2023-04-26T12:01:58.582Z,20.50
2023-04-26T12:04:30.294Z,20.20
2023-04-26T12:06:58.541Z,20.40
2023-04-26T12:09:31.597Z,20.50
2023-04-26T12:11:59.735Z,21.20
2023-04-26T12:14:37.999Z,21.40
2023-04-26T12:17:06.479Z,22.10
2023-04-26T12:19:34.130Z,21.40
2023-04-26T12:22:01.185Z,20.30
2023-04-26T12:24:32.311Z,18.10
2023-04-26T12:27:01.018Z,17.10
2023-04-26T12:29:30.760Z,15.90
2023-04-26T12:31:58.801Z,15.30
2023-04-26T12:34:25.999Z,14.70
2023-04-26T12:36:52.775Z,14.10
2023-04-26T12:39:19.592Z,14.00
2023-04-26T12:41:46.608Z,13.70
2023-04-26T12:44:14.407Z,13.60
2023-04-26T12:46:41.617Z,13.00
2023-04-26T12:49:08.684Z,12.90
2023-04-26T12:51:35.651Z,12.90
2023-04-26T12:54:02.990Z,13.40
2023-04-26T12:56:30.372Z,15.00
2023-04-26T12:58:57.382Z,16.20
2023-04-26T13:01:24.333Z,17.20
2023-04-26T13:03:51.344Z,18.10
2023-04-26T13:06:18.389Z,18.00
2023-04-26T13:08:45.384Z,18.40
2023-04-26T13:11:12.156Z,17.70
2023-04-26T13:13:43.791Z,16.70
2023-04-26T13:16:12.539Z,16.20
2023-04-26T13:18:40.679Z,15.40
2023-04-26T13:21:07.672Z,14.40
2023-04-26T13:23:34.553Z,13.80
2023-04-26T13:26:01.616Z,13.00
2023-04-26T13:28:28.397Z,12.60
2023-04-26T13:30:56.143Z,12.70
2023-04-26T13:33:23.231Z,12.60
2023-04-26T13:35:50.058Z,12.40
2023-04-26T13:38:17.317Z,12.30
2023-04-26T13:40:44.620Z,11.80
2023-04-26T13:43:11.500Z,11.60
2023-04-26T13:45:38.822Z,11.60
2023-04-26T13:48:05.920Z,11.40
2023-04-26T13:50:32.817Z,11.10
2023-04-26T13:52:59.975Z,10.80
2023-04-26T13:55:26.848Z,10.70
2023-04-26T13:57:53.691Z,10.60
2023-04-26T14:00:20.914Z,10.50
2023-04-26T14:02:48.279Z,10.40
2023-04-26T14:05:16.641Z,10.40
2023-04-26T14:07:43.681Z,10.50
2023-04-26T14:10:10.892Z,10.20
2023-04-26T14:12:37.718Z,10.30
2023-04-26T14:15:06.193Z,10.40
2023-04-26T14:17:33.415Z,10.60
2023-04-26T14:20:00.571Z,10.90
2023-04-26T14:22:27.624Z,11.40
2023-04-26T14:24:54.459Z,11.80
2023-04-26T14:27:21.362Z,12.10
2023-04-26T14:29:48.117Z,12.10
2023-04-26T14:32:15.015Z,12.30
2023-04-26T14:34:42.879Z,12.90
2023-04-26T14:37:10.418Z,13.30
2023-04-26T14:39:37.616Z,13.50
2023-04-26T14:42:05.296Z,13.60
2023-04-26T14:44:32.191Z,13.60
2023-04-26T14:46:58.970Z,13.30
2023-04-26T14:49:26.154Z,12.90
2023-04-26T14:51:53.861Z,12.80
2023-04-26T14:54:21.347Z,12.60
2023-04-26T14:56:48.681Z,12.30
2023-04-26T14:59:15.683Z,11.80
2023-04-26T15:01:42.477Z,11.80
2023-04-26T15:04:09.432Z,11.70
2023-04-26T15:06:36.582Z,11.40
2023-04-26T15:09:04.444Z,11.40
2023-04-26T15:11:31.699Z,11.10
2023-04-26T15:13:58.508Z,11.00
2023-04-26T15:16:25.377Z,10.90
2023-04-26T15:18:52.332Z,10.70
2023-04-26T15:21:19.755Z,10.70
2023-04-26T15:23:46.670Z,10.90
2023-04-26T15:26:14.077Z,10.90
2023-04-26T15:28:41.184Z,10.90
2023-04-26T15:31:10.111Z,10.70
2023-04-26T15:33:37.544Z,10.90
2023-04-26T15:36:05.341Z,11.10
2023-04-26T15:38:34.660Z,11.30
2023-04-26T15:41:01.530Z,11.20
2023-04-26T15:43:28.437Z,10.80
2023-04-26T15:45:55.389Z,10.50
2023-04-26T15:48:22.508Z,10.60
2023-04-26T15:50:50.637Z,10.90
2023-04-26T15:57:05.166Z,10.50
2023-04-26T15:59:32.664Z,10.30
2023-04-26T16:01:59.457Z,10.10
2023-04-26T16:04:26.522Z,9.90
2023-04-26T16:06:53.989Z,9.80
2023-04-26T16:09:25.332Z,9.80
2023-04-26T16:11:52.720Z,9.70
2023-04-26T16:14:19.539Z,9.60
2023-04-26T16:16:46.705Z,9.60
2023-04-26T16:19:13.651Z,9.50
2023-04-26T16:21:41.176Z,9.50
2023-04-26T16:24:09.264Z,9.40
2023-04-26T16:26:36.500Z,9.40
2023-04-26T16:29:06.494Z,9.30
2023-04-26T16:31:33.439Z,9.20
2023-04-26T16:34:00.594Z,9.30
2023-04-26T16:36:27.668Z,9.60
2023-04-26T16:38:55.160Z,9.80
2023-04-26T16:41:23.182Z,9.90
2023-04-26T16:43:52.708Z,9.80
2023-04-26T16:46:20.116Z,9.90
2023-04-26T16:48:47.243Z,10.00
2023-04-26T16:51:14.298Z,9.70
2023-04-26T16:53:41.105Z,9.50
2023-04-26T16:56:08.314Z,9.20
2023-04-26T16:58:35.829Z,9.00
2023-04-26T17:01:02.789Z,8.90
2023-04-26T17:03:29.735Z,8.80
2023-04-26T17:05:56.761Z,8.60
2023-04-26T17:08:23.598Z,8.50
2023-04-26T17:10:51.665Z,8.40
2023-04-26T17:13:18.936Z,8.40
2023-04-26T17:15:46.278Z,8.40
2023-04-26T17:18:13.251Z,8.40
2023-04-26T17:20:40.727Z,8.50
2023-04-26T17:23:08.618Z,8.60
2023-04-26T17:25:35.615Z,8.60
2023-04-26T17:28:02.461Z,8.70
2023-04-26T17:30:29.482Z,8.90
2023-04-26T17:32:56.455Z,8.80
2023-04-26T17:35:23.460Z,8.70
2023-04-26T17:37:50.704Z,8.50
2023-04-26T17:40:18.589Z,8.30
2023-04-26T17:42:46.417Z,8.20
2023-04-26T17:45:14.477Z,8.20
2023-04-26T17:47:42.367Z,8.00
2023-04-26T17:50:09.662Z,8.00
2023-04-26T17:52:37.206Z,7.90
2023-04-26T17:55:09.813Z,7.90
2023-04-26T17:57:37.391Z,7.80
2023-04-26T18:00:09.766Z,7.80
2023-04-26T18:02:37.297Z,7.80
2023-04-26T18:05:08.353Z,7.80
2023-04-26T18:07:35.124Z,7.80
2023-04-26T18:10:01.921Z,7.70
2023-04-26T18:12:30.685Z,7.70
2023-04-26T18:14:57.760Z,7.50
2023-04-26T18:17:24.711Z,7.50
2023-04-26T18:19:51.544Z,7.40
2023-04-26T18:22:18.354Z,7.30
2023-04-26T18:24:45.139Z,7.30
2023-04-26T18:27:13.966Z,7.20
2023-04-26T18:29:41.507Z,7.20
2023-04-26T18:32:08.351Z,7.20
2023-04-26T18:34:35.465Z,7.20
2023-04-26T18:37:02.308Z,7.20
2023-04-26T18:39:29.163Z,7.10
2023-04-26T18:41:55.950Z,7.10
2023-04-26T18:44:22.776Z,7.00
2023-04-26T18:46:51.710Z,6.90
2023-04-26T18:49:18.481Z,6.90
2023-04-26T18:51:45.442Z,6.90
2023-04-26T18:54:12.189Z,6.80
2023-04-26T18:56:39.458Z,6.70
2023-04-26T18:59:06.224Z,6.60
2023-04-26T19:01:33.368Z,6.50
2023-04-26T19:04:00.582Z,6.40
2023-04-26T19:06:28.231Z,6.30
2023-04-26T19:08:55.471Z,6.10
2023-04-26T19:11:22.253Z,6.00
2023-04-26T19:13:48.964Z,5.90
2023-04-26T19:16:15.804Z,5.70
2023-04-26T19:18:44.118Z,5.60
2023-04-26T19:21:11.363Z,5.60
2023-04-26T19:23:38.101Z,5.50
2023-04-26T19:26:07.951Z,5.40
2023-04-26T19:28:35.321Z,5.30
2023-04-26T19:31:02.174Z,5.20
2023-04-26T19:33:30.584Z,5.10
2023-04-26T19:35:57.428Z,5.00
2023-04-26T19:38:25.278Z,5.00
2023-04-26T19:40:52.955Z,4.90
2023-04-26T19:43:20.104Z,4.90
2023-04-26T19:45:46.924Z,4.90
2023-04-26T19:48:13.719Z,4.80
2023-04-26T19:50:41.546Z,4.70
2023-04-26T19:53:13.193Z,4.70
2023-04-26T19:55:41.227Z,4.60
2023-04-26T19:58:08.809Z,4.50
2023-04-26T20:00:36.141Z,4.40
2023-04-26T20:03:03.287Z,4.40
2023-04-26T20:05:31.091Z,4.30
2023-04-26T20:07:58.125Z,4.20
2023-04-26T20:10:24.989Z,4.20
2023-04-26T20:12:52.009Z,4.20
2023-04-26T20:15:19.185Z,4.30
2023-04-26T20:17:45.963Z,4.30
2023-04-26T20:20:13.788Z,4.30
2023-04-26T20:22:41.526Z,4.30
2023-04-26T20:25:08.748Z,4.20
2023-04-26T20:27:35.596Z,4.20
2023-04-26T20:33:47.590Z,4.20
2023-04-26T20:36:14.920Z,4.10
2023-04-26T20:38:42.479Z,4.00
2023-04-26T20:41:53.306Z,4.00
2023-04-26T20:44:20.011Z,3.90
2023-04-26T20:46:46.861Z,3.80
2023-04-26T20:49:13.833Z,3.80
2023-04-26T20:51:40.684Z,3.70
2023-04-26T20:54:07.422Z,3.70
2023-04-26T20:56:34.292Z,3.70
2023-04-26T20:59:01.609Z,3.70
2023-04-26T21:01:28.499Z,3.70
2023-04-26T21:03:55.310Z,3.60
2023-04-26T21:06:22.224Z,3.50
2023-04-26T21:08:48.936Z,3.50
2023-04-26T21:11:15.734Z,3.60
2023-04-26T21:13:42.593Z,3.60
2023-04-26T21:16:09.429Z,3.50
2023-04-26T21:18:36.288Z,3.50
2023-04-26T21:21:03.111Z,3.50
2023-04-26T21:23:29.911Z,3.40
2023-04-26T21:25:56.652Z,3.40
2023-04-26T21:28:23.429Z,3.40
2023-04-26T21:30:50.358Z,3.40
2023-04-26T21:33:17.261Z,3.30
2023-04-26T21:35:44.158Z,3.20
2023-04-26T21:38:10.985Z,3.20
2023-04-26T21:40:37.783Z,3.10
2023-04-26T21:43:05.565Z,3.10
2023-04-26T21:45:32.720Z,3.10
2023-04-26T21:47:59.533Z,3.10
2023-04-26T21:50:26.752Z,3.10
2023-04-26T21:52:53.669Z,3.00
2023-04-26T21:55:20.553Z,2.90
2023-04-26T21:57:47.393Z,2.90
2023-04-26T22:00:14.588Z,2.80
2023-04-26T22:02:41.692Z,2.80
2023-04-26T22:05:08.989Z,2.80
2023-04-26T22:07:35.790Z,2.80
2023-04-26T22:10:03.002Z,2.70
2023-04-26T22:12:29.820Z,2.70
2023-04-26T22:14:56.667Z,2.70
2023-04-26T22:17:23.840Z,2.60
2023-04-26T22:19:50.797Z,2.60
2023-04-26T22:22:18.518Z,2.60
2023-04-26T22:24:45.285Z,2.60
2023-04-26T22:27:12.149Z,2.50
2023-04-26T22:29:38.955Z,2.50
2023-04-26T22:32:06.029Z,2.50
2023-04-26T22:34:32.830Z,2.50
2023-04-26T22:37:13.287Z,2.50
2023-04-26T22:39:46.557Z,2.50
2023-04-26T22:42:13.300Z,2.40
2023-04-26T22:44:40.062Z,2.40
2023-04-26T22:47:06.897Z,2.40
2023-04-26T22:49:33.770Z,2.30
2023-04-26T22:52:07.898Z,2.30
2023-04-26T22:54:41.207Z,2.30
2023-04-26T22:57:08.253Z,2.20
2023-04-26T22:59:35.225Z,2.20
2023-04-26T23:02:02.226Z,2.20
2023-04-26T23:04:29.050Z,2.10
2023-04-26T23:06:56.291Z,2.10
2023-04-26T23:09:23.120Z,2.10
2023-04-26T23:11:49.987Z,2.10
2023-04-26T23:14:19.668Z,2.10
2023-04-26T23:16:46.543Z,2.10
2023-04-26T23:19:13.984Z,2.10
2023-04-26T23:21:41.514Z,2.10
2023-04-26T23:24:08.378Z,2.10
2023-04-26T23:26:35.159Z,2.10
2023-04-26T23:29:02.040Z,2.00
2023-04-26T23:31:28.981Z,2.00
2023-04-26T23:33:55.888Z,2.00
2023-04-26T23:36:22.659Z,2.00
2023-04-26T23:38:49.460Z,2.00
2023-04-26T23:41:16.247Z,1.90
2023-04-26T23:43:43.082Z,1.90
2023-04-26T23:46:09.873Z,1.90
2023-04-26T23:48:36.770Z,1.90
2023-04-26T23:51:04.345Z,1.90
2023-04-26T23:53:31.159Z,1.90
2023-04-26T23:55:57.955Z,1.90
2023-04-26T23:58:24.752Z,1.90
